Time;durP1;ratioP1;P1;durP2;ratioP2;P2;SDS_P1;SDS_P2;PMS_P1;PMS_P2;Temp;Humidity;BMP_temperature;BMP_pressure;BME280_temperature;BME280_humidity;BME280_pressure;Samples;Min_cycle;Max_cycle;Signal;HPM_P1;HPM_P2
2022/04/17 00:00:55;;;;;;;10.55;7.15;;;;;;;14.85;58.66;99718.00;5128510;27;20035;-29
2022/04/17 00:03:24;;;;;;;17.05;8.90;;;;;;;14.94;59.11;99731.75;5128229;27;20034;-29
2022/04/17 00:05:50;;;;;;;16.73;9.35;;;;;;;14.86;59.43;99734.91;5128706;27;20114;-29
2022/04/17 00:08:15;;;;;;;21.75;11.13;;;;;;;14.90;59.58;99738.72;5128611;27;20023;-31
2022/04/17 00:10:41;;;;;;;20.65;11.20;;;;;;;15.07;59.73;99752.00;5128258;27;20027;-30
2022/04/17 00:13:06;;;;;;;23.27;10.90;;;;;;;15.24;58.71;99762.59;5128550;27;20034;-30
2022/04/17 00:15:32;;;;;;;19.40;10.80;;;;;;;14.61;60.20;99759.66;5128370;27;20337;-28
2022/04/17 00:17:57;;;;;;;15.43;8.70;;;;;;;14.35;61.13;99756.66;5128371;27;20027;-29
2022/04/17 00:20:22;;;;;;;11.32;6.95;;;;;;;14.11;61.48;99739.19;5128034;27;20039;-29
2022/04/17 00:22:48;;;;;;;10.45;6.13;;;;;;;14.41;60.46;99749.47;5128206;27;20032;-34
2022/04/17 00:25:16;;;;;;;10.93;6.38;;;;;;;14.25;61.27;99745.81;5128372;27;20555;-29
2022/04/17 00:27:42;;;;;;;8.63;5.78;;;;;;;14.01;63.29;99740.69;5128274;28;20494;-29
2022/04/17 00:30:09;;;;;;;9.55;6.25;;;;;;;13.89;63.20;99753.41;5127948;27;20046;-28
2022/04/17 00:32:36;;;;;;;10.55;6.78;;;;;;;14.22;62.09;99743.59;5127944;28;20027;-29
2022/04/17 00:35:04;;;;;;;11.45;6.30;;;;;;;14.36;61.07;99734.09;5128424;28;20483;-28
2022/04/17 00:37:29;;;;;;;10.00;5.97;;;;;;;14.46;61.69;99747.66;5109315;28;20047;-29
2022/04/17 00:39:54;;;;;;;11.35;6.60;;;;;;;14.73;60.38;99746.88;5128240;28;20031;-29
2022/04/17 00:42:20;;;;;;;10.93;6.20;;;;;;;14.60;59.83;99733.84;5127763;28;20027;-28
2022/04/17 00:44:46;;;;;;;9.60;6.32;;;;;;;14.69;59.85;99729.66;5127965;28;20110;-30
2022/04/17 00:47:15;;;;;;;10.52;6.40;;;;;;;14.72;59.46;99750.63;5128468;28;20827;-28
2022/04/17 00:49:42;;;;;;;9.95;6.03;;;;;;;14.71;58.20;99753.56;5128139;28;20028;-29
2022/04/17 00:52:08;;;;;;;9.35;5.72;;;;;;;14.70;59.00;99747.38;5128003;28;20034;-29
2022/04/17 00:54:37;;;;;;;10.45;6.15;;;;;;;14.85;58.38;99749.38;5127926;28;20174;-28
2022/04/17 00:57:05;;;;;;;11.43;6.75;;;;;;;14.92;58.05;99741.94;5128012;28;20080;-29
2022/04/17 00:59:30;;;;;;;10.50;6.50;;;;;;;14.82;58.42;99748.03;5128034;28;20220;-31
2022/04/17 01:01:56;;;;;;;10.38;6.30;;;;;;;14.70;57.36;99728.59;5128225;28;20158;-30
2022/04/17 01:04:21;;;;;;;12.13;6.95;;;;;;;14.69;58.50;99729.66;5127849;28;20019;-30
2022/04/17 01:06:47;;;;;;;11.93;7.38;;;;;;;14.84;58.37;99732.47;5127895;28;20469;-31
2022/04/17 01:09:14;;;;;;;8.63;6.47;;;;;;;14.67;59.24;99747.91;5127783;28;20011;-31
2022/04/17 01:11:39;;;;;;;10.23;6.70;;;;;;;14.68;58.76;99754.06;5127937;28;20054;-34
2022/04/17 01:14:06;;;;;;;13.43;6.53;;;;;;;14.79;57.84;99748.56;5127489;28;20070;-28
2022/04/17 01:16:32;;;;;;;11.27;6.93;;;;;;;14.60;59.08;99744.59;5109812;28;20055;-32
2022/04/17 01:19:11;;;;;;;10.38;6.45;;;;;;;14.70;59.33;99752.75;5127809;28;20119;-29
2022/04/17 01:21:37;;;;;;;10.70;7.20;;;;;;;14.44;60.66;99754.31;5109203;28;20038;-29
2022/04/17 01:26:56;;;;;;;12.25;7.80;;;;;;;14.04;61.96;99750.94;5127988;28;20038;-28
2022/04/17 01:29:42;;;;;;;10.90;7.43;;;;;;;14.04;62.71;99760.84;5127755;28;20031;-29
2022/04/17 01:32:10;;;;;;;9.88;6.72;;;;;;;14.01;63.27;99759.44;5127639;28;20070;-29
2022/04/17 01:34:36;;;;;;;9.40;6.35;;;;;;;13.97;62.42;99750.28;5127133;28;20035;-30
2022/04/17 01:37:02;;;;;;;11.73;7.13;;;;;;;14.29;61.12;99770.25;5125739;28;20044;-31
2022/04/17 01:39:29;;;;;;;12.02;8.18;;;;;;;14.25;60.73;99761.91;5127557;28;20023;-30
2022/04/17 01:41:55;;;;;;;12.20;6.95;;;;;;;14.30;60.34;99771.88;5127525;27;20031;-29
2022/04/17 01:44:22;;;;;;;10.82;6.45;;;;;;;14.49;59.08;99772.38;5130612;27;20027;-32
2022/04/17 01:46:48;;;;;;;11.77;7.47;;;;;;;14.40;60.05;99769.28;5131057;27;20027;-28
2022/04/17 01:49:15;;;;;;;11.82;6.43;;;;;;;14.41;60.04;99771.75;5131177;27;20689;-28
2022/04/17 01:51:42;;;;;;;11.13;6.70;;;;;;;14.17;60.71;99765.81;5130984;27;20130;-29
2022/04/17 01:54:10;;;;;;;11.90;7.75;;;;;;;14.44;59.45;99748.94;5131454;27;20023;-28
2022/04/17 01:56:36;;;;;;;10.98;7.28;;;;;;;14.71;59.38;99762.44;5130847;27;20034;-29
2022/04/17 01:59:04;;;;;;;10.63;7.68;;;;;;;14.53;59.45;99752.81;5112455;27;20035;-29
2022/04/17 02:01:30;;;;;;;11.80;8.50;;;;;;;14.55;59.49;99741.84;5130734;27;20480;-29
2022/04/17 02:03:55;;;;;;;14.57;8.90;;;;;;;14.52;59.67;99750.38;5130725;27;20035;-29
2022/04/17 02:06:21;;;;;;;13.18;7.95;;;;;;;14.45;59.65;99753.28;5130581;27;20453;-29
2022/04/17 02:08:46;;;;;;;12.90;7.88;;;;;;;14.59;59.46;99751.84;5130554;27;20027;-28
2022/04/17 02:11:12;;;;;;;13.43;7.45;;;;;;;14.50;59.72;99741.78;5130542;27;20122;-34
2022/04/17 02:13:38;;;;;;;11.38;7.18;;;;;;;14.17;61.98;99754.28;5112087;27;20428;-29
2022/04/17 02:16:04;;;;;;;11.35;7.22;;;;;;;14.14;60.75;99752.09;5130475;27;20525;-29
2022/04/17 02:18:30;;;;;;;10.75;7.10;;;;;;;14.27;60.34;99759.78;5111390;27;20099;-29
2022/04/17 02:20:55;;;;;;;11.32;7.63;;;;;;;13.98;61.37;99746.56;5130310;27;20035;-29
2022/04/17 02:23:21;;;;;;;11.82;8.27;;;;;;;14.05;60.99;99757.88;5130343;27;20015;-29
2022/04/17 02:25:46;;;;;;;13.85;7.78;;;;;;;14.04;60.98;99729.47;5130164;27;20023;-30
2022/04/17 02:28:15;;;;;;;12.38;7.82;;;;;;;13.85;62.09;99750.44;5130258;27;20030;-32
2022/04/17 02:30:41;;;;;;;12.02;7.07;;;;;;;13.92;62.59;99746.75;5130208;27;20100;-29
2022/04/17 02:33:06;;;;;;;13.48;7.95;;;;;;;14.02;60.68;99733.47;5129967;27;20031;-32
2022/04/17 02:35:32;;;;;;;12.20;7.45;;;;;;;14.17;59.51;99738.19;5112038;27;20031;-29
2022/04/17 02:37:57;;;;;;;14.45;8.55;;;;;;;13.88;61.37;99722.31;5129988;27;20059;-31
2022/04/17 02:40:23;;;;;;;11.93;7.97;;;;;;;13.81;61.20;99718.97;5129840;27;20015;-29
2022/04/17 02:42:48;;;;;;;16.15;8.55;;;;;;;13.81;62.76;99740.41;5111578;27;20037;-29
2022/04/17 02:45:14;;;;;;;13.55;7.88;;;;;;;13.83;62.08;99733.78;5130325;27;20096;-28
2022/04/17 02:47:43;;;;;;;14.68;8.90;;;;;;;13.76;62.02;99740.38;5129897;27;20027;-29
2022/04/17 02:50:10;;;;;;;13.27;7.90;;;;;;;13.75;61.91;99744.94;5130048;27;20031;-29
2022/04/17 02:52:36;;;;;;;11.48;7.28;;;;;;;13.67;62.80;99729.28;5129841;27;20030;-28
2022/04/17 02:55:03;;;;;;;12.05;7.07;;;;;;;13.59;62.56;99735.88;5109858;27;20042;-29
2022/04/17 02:57:28;;;;;;;11.23;6.18;;;;;;;13.72;62.02;99736.56;5111281;27;20129;-31
2022/04/17 02:59:54;;;;;;;12.82;7.28;;;;;;;13.68;62.74;99735.44;5111096;27;20026;-29
2022/04/17 03:07:48;;;;;;;16.50;11.30;;;;;;;14.02;61.15;99736.97;5129904;27;20034;-29
2022/04/17 03:10:13;;;;;;;22.13;13.75;;;;;;;14.05;62.68;99757.88;5129497;27;20019;-29
2022/04/17 03:12:39;;;;;;;42.25;9.65;;;;;;;13.89;63.19;99757.94;5129148;27;20075;-29
2022/04/17 03:15:06;;;;;;;11.35;7.38;;;;;;;13.73;63.03;99748.88;5110427;27;20031;-32
2022/04/17 03:17:31;;;;;;;9.82;6.22;;;;;;;13.58;62.57;99758.34;5129610;27;20031;-28
2022/04/17 03:19:57;;;;;;;13.77;7.38;;;;;;;13.23;64.50;99778.13;5129566;27;20498;-29
2022/04/17 03:22:26;;;;;;;22.25;12.02;;;;;;;13.31;65.48;99765.44;5129307;27;20015;-29
2022/04/17 03:24:52;;;;;;;21.55;12.27;;;;;;;13.08;67.43;99791.28;5110820;27;20027;-31
2022/04/17 03:27:19;;;;;;;13.40;8.00;;;;;;;13.06;67.54;99794.19;5128815;27;20031;-32
2022/04/17 03:29:44;;;;;;;17.38;11.25;;;;;;;12.92;68.37;99786.72;5129297;27;20038;-30
2022/04/17 03:32:10;;;;;;;12.60;8.05;;;;;;;12.79;69.74;99788.66;5127669;27;20078;-28
2022/04/17 03:34:36;;;;;;;13.75;8.88;;;;;;;12.77;70.07;99785.41;5129042;27;20102;-28
2022/04/17 03:37:02;;;;;;;14.13;8.23;;;;;;;12.58;71.46;99798.13;5128824;27;20400;-29
2022/04/17 03:39:27;;;;;;;14.15;8.57;;;;;;;12.64;71.03;99791.03;5110227;27;20023;-31
2022/04/17 03:41:53;;;;;;;18.73;10.57;;;;;;;12.63;72.82;99784.06;5128428;27;20023;-31
2022/04/17 03:44:20;;;;;;;19.58;12.88;;;;;;;12.88;71.55;99812.34;5110101;27;20027;-32
2022/04/17 03:46:47;;;;;;;14.20;9.77;;;;;;;12.56;73.76;99794.88;5110224;27;20034;-33
2022/04/17 03:49:13;;;;;;;12.25;9.43;;;;;;;12.64;74.51;99804.41;5128676;27;20049;-29
2022/04/17 03:51:39;;;;;;;14.95;9.70;;;;;;;12.44;75.83;99802.16;5128748;27;20495;-29
2022/04/17 03:54:04;;;;;;;13.75;10.23;;;;;;;12.39;76.87;99800.19;5128551;27;20571;-32
2022/04/17 03:56:29;;;;;;;14.57;10.98;;;;;;;12.52;77.81;99806.31;5109686;27;20038;-29
2022/04/17 03:58:55;;;;;;;15.18;10.73;;;;;;;12.52;77.78;99820.50;5128367;27;20486;-30
2022/04/17 04:01:21;;;;;;;14.85;10.82;;;;;;;12.52;78.67;99820.50;5110102;27;20479;-29
2022/04/17 04:03:47;;;;;;;18.55;15.32;;;;;;;12.34;79.42;99807.28;5110082;27;20549;-29
2022/04/17 04:06:13;;;;;;;15.95;12.40;;;;;;;12.40;81.81;99831.25;5128140;27;20059;-29
2022/04/17 04:08:39;;;;;;;15.52;11.38;;;;;;;12.43;80.45;99824.59;5128412;27;20043;-29
2022/04/17 04:11:05;;;;;;;15.20;11.07;;;;;;;12.54;80.40;99823.75;5128111;27;20031;-32
2022/04/17 04:13:32;;;;;;;14.23;11.38;;;;;;;12.44;81.52;99827.06;5128587;27;20034;-32
2022/04/17 04:16:01;;;;;;;14.85;11.90;;;;;;;12.41;82.49;99834.72;5128406;27;20027;-29
2022/04/17 04:18:27;;;;;;;16.52;11.02;;;;;;;12.24;84.21;99837.31;5109453;28;20022;-33
2022/04/17 04:20:52;;;;;;;18.08;10.27;;;;;;;12.28;84.94;99833.13;5109584;28;20058;-30
2022/04/17 04:23:21;;;;;;;13.45;11.95;;;;;;;12.20;87.08;99822.81;5128145;27;20539;-29
2022/04/17 04:25:46;;;;;;;17.67;11.30;;;;;;;12.50;85.09;99835.16;5127818;27;20022;-29
2022/04/17 04:30:55;;;;;;;14.50;11.20;;;;;;;12.29;85.79;99834.75;5128117;27;20058;-29
2022/04/17 04:33:21;;;;;;;16.63;11.23;;;;;;;12.34;85.76;99831.34;5128104;28;20054;-31
2022/04/17 04:35:47;;;;;;;16.17;11.75;;;;;;;12.22;86.14;99845.56;5128148;28;20469;-32
2022/04/17 04:38:12;;;;;;;16.10;11.45;;;;;;;12.06;86.94;99847.09;5109249;28;20023;-34
2022/04/17 04:40:37;;;;;;;17.48;12.70;;;;;;;11.86;88.42;99838.59;5128081;28;20471;-29
2022/04/17 04:43:04;;;;;;;16.67;11.73;;;;;;;11.80;89.43;99844.88;5128088;28;20011;-29
2022/04/17 04:48:13;;;;;;;16.15;11.98;;;;;;;11.72;90.10;99838.00;5128287;28;20134;-30
2022/04/17 04:50:39;;;;;;;17.30;11.52;;;;;;;11.82;89.95;99837.44;5127530;28;20080;-34
2022/04/17 04:53:05;;;;;;;14.73;11.18;;;;;;;12.02;88.95;99863.84;5128017;28;20062;-29
2022/04/17 04:55:30;;;;;;;17.63;11.45;;;;;;;11.92;89.25;99848.38;5127989;28;20038;-31
2022/04/17 04:57:56;;;;;;;16.38;11.57;;;;;;;12.09;90.09;99874.41;5128077;28;20402;-29
2022/04/17 05:00:22;;;;;;;18.25;12.38;;;;;;;11.90;91.15;99861.16;5127744;28;20821;-29
2022/04/17 05:02:47;;;;;;;15.18;10.80;;;;;;;11.91;92.08;99873.50;5127808;28;20098;-28
2022/04/17 05:05:13;;;;;;;14.32;11.05;;;;;;;11.78;92.70;99860.31;5109179;28;20031;-30
2022/04/17 05:07:39;;;;;;;16.20;11.07;;;;;;;11.92;91.40;99852.94;5109364;28;20038;-28
2022/04/17 05:10:06;;;;;;;17.25;12.25;;;;;;;11.95;91.75;99860.47;5109292;28;20052;-29
2022/04/17 05:12:33;;;;;;;17.65;12.57;;;;;;;12.04;92.63;99872.44;5128071;28;20035;-29
2022/04/17 05:14:59;;;;;;;16.95;11.00;;;;;;;11.91;92.22;99868.16;5109093;28;20031;-29
2022/04/17 05:17:24;;;;;;;15.00;11.85;;;;;;;11.94;92.74;99866.88;5109820;27;20064;-31
2022/04/17 05:19:50;;;;;;;18.23;12.10;;;;;;;11.92;92.88;99853.72;5131934;27;20027;-30
2022/04/17 05:22:16;;;;;;;17.45;11.82;;;;;;;11.94;94.25;99872.22;5113223;27;20765;-30
2022/04/17 05:24:45;;;;;;;18.15;13.40;;;;;;;11.89;93.82;99846.19;5113392;27;20394;-32
2022/04/17 05:27:12;;;;;;;17.00;12.55;;;;;;;11.95;93.74;99865.81;5131427;27;20035;-29
2022/04/17 05:29:38;;;;;;;20.17;12.45;;;;;;;11.82;92.93;99840.09;5131394;27;20160;-29
2022/04/17 05:32:04;;;;;;;18.63;13.00;;;;;;;11.60;93.12;99847.88;5112693;27;20031;-30
2022/04/17 05:34:29;;;;;;;22.10;14.90;;;;;;;11.67;94.23;99856.59;5130853;27;20031;-29
2022/04/17 05:36:56;;;;;;;18.55;12.85;;;;;;;11.54;93.43;99838.91;5131023;27;20443;-33
2022/04/17 05:39:22;;;;;;;17.25;13.32;;;;;;;11.65;93.89;99856.81;5131180;27;20027;-30
2022/04/17 05:41:47;;;;;;;19.77;14.07;;;;;;;11.68;93.63;99857.41;5131175;27;20031;-29
2022/04/17 05:44:14;;;;;;;17.85;13.05;;;;;;;11.56;93.02;99839.50;5131172;27;20087;-29
2022/04/17 05:46:41;;;;;;;17.73;12.95;;;;;;;11.52;93.67;99848.22;5112268;27;20038;-29
2022/04/17 05:49:07;;;;;;;19.60;13.90;;;;;;;11.55;94.43;99853.91;5130845;27;20026;-33
2022/04/17 05:51:34;;;;;;;19.33;13.40;;;;;;;11.62;95.01;99843.91;5112488;27;20406;-30
2022/04/17 05:54:01;;;;;;;15.85;12.32;;;;;;;11.76;94.23;99865.06;5112277;27;20019;-30
2022/04/17 05:56:27;;;;;;;19.40;14.77;;;;;;;11.83;95.03;99861.25;5130651;27;20122;-29
2022/04/17 05:58:53;;;;;;;28.83;19.13;;;;;;;11.76;93.75;99854.41;5112127;27;20016;-30
2022/04/17 06:01:18;;;;;;;26.05;20.50;;;;;;;11.64;94.57;99846.38;5130604;27;20486;-31
2022/04/17 06:03:44;;;;;;;24.65;18.33;;;;;;;11.64;94.63;99847.16;5130876;27;20106;-31
2022/04/17 06:06:10;;;;;;;33.47;25.55;;;;;;;12.01;94.55;99857.69;5130840;27;20030;-31
2022/04/17 06:08:35;;;;;;;22.00;18.23;;;;;;;12.16;94.17;99853.72;5130243;27;20491;-30
2022/04/17 06:11:01;;;;;;;22.48;18.15;;;;;;;11.99;95.65;99850.94;5130609;27;20023;-29
2022/04/17 06:13:26;;;;;;;20.63;15.48;;;;;;;12.02;94.98;99848.63;5130870;27;20031;-31
2022/04/17 06:15:52;;;;;;;18.63;14.57;;;;;;;11.95;94.91;99845.25;5130209;27;20023;-34
2022/04/17 06:18:18;;;;;;;19.95;14.07;;;;;;;11.89;95.11;99826.66;5130321;27;20099;-31
2022/04/17 06:20:43;;;;;;;23.98;18.33;;;;;;;11.77;94.35;99821.28;5130290;27;20490;-34
2022/04/17 06:23:08;;;;;;;21.63;15.70;;;;;;;12.01;94.08;99825.63;5130360;27;20044;-30
2022/04/17 06:25:34;;;;;;;20.52;14.98;;;;;;;12.01;94.66;99838.97;5130190;27;20407;-35
2022/04/17 06:27:59;;;;;;;18.65;14.90;;;;;;;11.99;94.70;99830.38;5130060;27;20419;-29
2022/04/17 06:30:26;;;;;;;19.85;15.05;;;;;;;12.25;94.49;99836.25;5129999;27;20030;-31
2022/04/17 06:32:51;;;;;;;17.55;13.70;;;;;;;12.18;92.63;99812.34;5128373;27;20114;-30
2022/04/17 06:35:17;;;;;;;24.98;17.58;;;;;;;12.11;94.90;99827.69;5130195;27;20122;-33
2022/04/17 06:37:49;;;;;;;20.50;16.27;;;;;;;12.19;96.37;99826.50;5130104;27;20109;-30
2022/04/17 06:40:26;;;;;;;21.23;16.65;;;;;;;12.27;96.15;99826.16;5130093;27;20023;-29
2022/04/17 06:42:53;;;;;;;19.85;15.43;;;;;;;12.02;95.14;99813.88;5111387;27;20092;-34
2022/04/17 06:45:19;;;;;;;20.03;14.87;;;;;;;11.88;96.13;99825.00;5111278;27;20058;-29
2022/04/17 06:47:45;;;;;;;20.60;16.08;;;;;;;11.93;96.08;99819.78;5130103;27;20055;-33
2022/04/17 06:50:12;;;;;;;21.20;14.85;;;;;;;12.21;95.98;99819.06;5129863;27;20058;-31
2022/04/17 06:52:38;;;;;;;21.42;16.00;;;;;;;12.21;94.33;99819.88;5110936;27;20078;-32
2022/04/17 06:55:05;;;;;;;19.88;14.80;;;;;;;12.17;93.81;99813.38;5129499;27;20050;-31
2022/04/17 06:57:32;;;;;;;23.10;16.45;;;;;;;12.10;96.28;99822.59;5110890;27;20027;-29
2022/04/17 06:59:58;;;;;;;20.75;14.77;;;;;;;12.24;96.48;99823.97;5127956;27;20514;-34
2022/04/17 07:02:24;;;;;;;19.98;14.10;;;;;;;12.36;93.92;99826.59;5110830;27;20027;-31
2022/04/17 07:04:50;;;;;;;20.65;14.82;;;;;;;12.37;95.69;99834.38;5129536;27;20027;-29
2022/04/17 07:07:16;;;;;;;19.73;14.73;;;;;;;12.21;95.07;99819.06;5129655;27;20031;-30
2022/04/17 07:09:42;;;;;;;21.30;15.20;;;;;;;12.05;97.01;99817.91;5129203;27;20086;-29
2022/04/17 07:12:08;;;;;;;20.80;15.15;;;;;;;12.35;95.30;99815.09;5129278;27;20031;-29
2022/04/17 07:14:33;;;;;;;20.63;14.85;;;;;;;12.35;94.81;99836.47;5128806;27;20459;-31
2022/04/17 07:16:59;;;;;;;20.95;16.23;;;;;;;12.13;96.82;99817.56;5129803;27;20037;-33
2022/04/17 07:19:24;;;;;;;21.52;14.70;;;;;;;11.79;98.18;99821.84;5129130;27;20041;-34
2022/04/17 07:21:50;;;;;;;20.92;15.55;;;;;;;11.93;97.54;99820.63;5128983;27;20027;-30
2022/04/17 07:24:16;;;;;;;23.85;17.15;;;;;;;12.06;96.48;99812.34;5129118;27;20027;-29
2022/04/17 07:26:41;;;;;;;23.42;16.60;;;;;;;12.09;96.52;99837.00;5110412;27;20049;-31
2022/04/17 07:29:07;;;;;;;21.45;16.75;;;;;;;12.11;97.05;99826.88;5110383;27;20019;-31
2022/04/17 07:31:33;;;;;;;25.10;17.98;;;;;;;12.01;97.53;99836.31;5110472;27;20469;-30
2022/04/17 07:33:58;;;;;;;28.13;19.75;;;;;;;11.90;96.34;99818.41;5128818;27;20070;-32
2022/04/17 07:36:24;;;;;;;34.17;23.23;;;;;;;11.86;96.47;99843.94;5128423;27;20130;-31
2022/04/17 07:38:49;;;;;;;28.58;20.02;;;;;;;11.93;96.40;99852.69;5110143;27;20038;-30
2022/04/17 07:41:15;;;;;;;24.13;17.15;;;;;;;11.90;97.36;99845.13;5109551;27;20034;-33
2022/04/17 07:43:40;;;;;;;29.60;19.27;;;;;;;12.21;95.79;99825.22;5128096;27;20019;-32
2022/04/17 07:46:06;;;;;;;34.50;22.08;;;;;;;11.99;95.54;99817.03;5128790;27;20388;-29
2022/04/17 07:48:31;;;;;;;23.92;16.15;;;;;;;12.11;94.69;99814.31;5128604;27;20023;-30
2022/04/17 07:50:56;;;;;;;29.02;18.67;;;;;;;12.08;95.75;99796.09;5128567;27;20027;-30
2022/04/17 07:53:22;;;;;;;31.77;20.42;;;;;;;12.00;96.28;99807.94;5128582;27;20021;-29
2022/04/17 07:55:50;;;;;;;33.28;20.15;;;;;;;11.83;98.25;99791.78;5128597;27;20029;-29
2022/04/17 07:58:24;;;;;;;22.65;15.38;;;;;;;12.19;96.17;99810.47;5126875;27;20019;-29
2022/04/17 08:00:59;;;;;;;17.00;12.65;;;;;;;12.24;93.69;99808.72;5110428;27;20521;-29
2022/04/17 08:06:01;;;;;;;28.83;17.88;;;;;;;12.08;94.48;99781.91;5128519;27;20065;-31
2022/04/17 08:08:26;;;;;;;20.73;14.40;;;;;;;12.12;95.82;99799.91;5128029;27;20102;-29
2022/04/17 08:10:52;;;;;;;24.75;17.10;;;;;;;12.04;97.04;99802.94;5109599;27;20486;-36
2022/04/17 08:13:18;;;;;;;37.17;25.25;;;;;;;12.02;95.57;99768.44;5128508;27;20037;-29
2022/04/17 08:15:43;;;;;;;24.35;18.30;;;;;;;12.33;95.36;99790.44;5128489;27;20034;-33
2022/04/17 08:18:09;;;;;;;20.83;16.35;;;;;;;12.14;95.05;99807.72;5128057;27;20808;-29
2022/04/17 08:20:35;;;;;;;17.33;12.82;;;;;;;12.00;93.91;99799.94;5128021;27;20039;-31
2022/04/17 08:23:01;;;;;;;21.88;14.70;;;;;;;11.87;95.26;99805.50;5127965;27;20100;-33
2022/04/17 08:25:26;;;;;;;19.60;13.88;;;;;;;11.81;95.18;99803.72;5127616;27;20026;-33
2022/04/17 08:27:55;;;;;;;21.95;15.05;;;;;;;12.10;93.93;99782.50;5128282;27;20027;-29
2022/04/17 08:30:22;;;;;;;20.42;14.25;;;;;;;12.14;93.15;99791.66;5127807;27;20706;-29
2022/04/17 08:32:48;;;;;;;19.15;14.98;;;;;;;12.06;95.00;99809.69;5109659;28;20427;-29
2022/04/17 08:35:14;;;;;;;17.77;13.30;;;;;;;12.06;94.71;99796.31;5109168;28;20380;-31
2022/04/17 08:37:40;;;;;;;16.55;12.35;;;;;;;11.81;95.12;99806.41;5109273;28;20062;-29
2022/04/17 08:40:06;;;;;;;19.25;12.80;;;;;;;11.70;95.87;99802.69;5127980;28;20031;-29
2022/04/17 08:42:32;;;;;;;15.27;11.13;;;;;;;11.76;95.07;99812.47;5108989;28;20027;-29
2022/04/17 08:44:58;;;;;;;17.95;12.02;;;;;;;11.65;96.26;99814.09;5109548;28;20087;-31
2022/04/17 08:47:25;;;;;;;15.65;11.77;;;;;;;11.49;97.63;99820.13;5128012;28;20028;-29
2022/04/17 08:49:53;;;;;;;21.17;13.27;;;;;;;11.47;98.00;99798.16;5109315;28;20031;-29
2022/04/17 08:52:19;;;;;;;;;;;;;;;11.49;99.54;99812.09;5111417;27;20027;-31
2022/04/17 08:54:46;;;;;;;22.55;14.23;;;;;;;11.47;99.71;99803.50;5132292;27;19983;-29
2022/04/17 08:57:11;;;;;;;26.17;15.65;;;;;;;11.49;99.60;99817.44;5113391;27;20039;-33
2022/04/17 08:59:38;;;;;;;19.95;13.77;;;;;;;11.45;98.65;99800.25;5113661;27;20023;-30
2022/04/17 09:02:10;;;;;;;25.35;15.57;;;;;;;11.68;98.75;99806.66;5113138;27;20051;-35
2022/04/17 09:04:36;;;;;;;17.65;11.38;;;;;;;11.36;97.51;99802.47;5113067;27;20027;-34
2022/04/17 09:07:03;;;;;;;136.18;88.32;;;;;;;11.14;97.83;99788.03;5112757;27;20434;-35
2022/04/17 09:09:28;;;;;;;20.20;13.95;;;;;;;11.27;96.66;99788.63;5113123;27;20084;-36
2022/04/17 09:11:57;;;;;;;21.48;16.02;;;;;;;11.05;97.24;99795.53;5131862;27;20027;-29
2022/04/17 09:14:23;;;;;;;17.58;11.50;;;;;;;10.96;98.57;99800.41;5131538;27;20065;-30
2022/04/17 09:16:50;;;;;;;17.15;15.35;;;;;;;10.95;99.07;99795.28;5130192;27;20095;-29
2022/04/17 09:19:18;;;;;;;18.63;16.35;;;;;;;10.93;98.36;99798.19;5112886;27;20033;-34
2022/04/17 09:21:44;;;;;;;12.48;9.38;;;;;;;11.03;99.09;99808.28;5112942;27;20084;-30
2022/04/17 09:24:18;;;;;;;12.32;8.25;;;;;;;10.83;97.98;99809.41;5130047;27;20031;-30
2022/04/17 09:26:49;;;;;;;13.77;8.82;;;;;;;10.86;98.90;99798.28;5131484;27;20123;-31
2022/04/17 09:29:26;;;;;;;17.25;8.95;;;;;;;11.06;98.27;99789.19;5131246;27;20034;-32
2022/04/17 09:31:59;;;;;;;14.80;8.57;;;;;;;10.68;99.05;99793.00;5131235;27;20033;-32
2022/04/17 09:34:26;;;;;;;23.98;15.35;;;;;;;10.86;98.87;99800.94;5112466;27;20073;-34
2022/04/17 09:36:58;;;;;;;17.92;11.00;;;;;;;10.97;98.16;99794.03;5112379;27;20058;-34
2022/04/17 09:39:31;;;;;;;16.38;10.57;;;;;;;10.76;100.00;99768.66;5112559;27;20402;-30
2022/04/17 09:42:01;;;;;;;15.18;8.68;;;;;;;11.01;98.62;99784.53;5131157;27;20027;-33
2022/04/17 09:44:37;;;;;;;15.05;9.77;;;;;;;11.26;98.18;99781.66;5112019;27;20027;-32
2022/04/17 09:47:12;;;;;;;12.02;7.75;;;;;;;11.12;96.95;99774.91;5131169;27;20035;-33
2022/04/17 09:49:57;;;;;;;12.90;6.88;;;;;;;11.06;95.58;99781.97;5131171;27;20042;-30
2022/04/17 09:52:33;;;;;;;14.05;8.07;;;;;;;10.95;96.73;99760.59;5130629;27;20050;-30
2022/04/17 09:55:00;;;;;;;10.07;6.47;;;;;;;11.17;94.82;99744.88;5112452;27;20019;-30
2022/04/17 09:57:28;;;;;;;4.55;2.75;;;;;;;11.08;91.73;99747.06;5112368;27;20034;-30
2022/04/17 09:59:54;;;;;;;5.65;3.70;;;;;;;10.98;93.64;99744.16;5112397;27;20031;-30
2022/04/17 10:02:20;;;;;;;12.98;7.35;;;;;;;11.02;94.49;99764.78;5130552;27;20031;-29
2022/04/17 10:04:47;;;;;;;9.80;5.72;;;;;;;10.94;93.97;99756.31;5111454;27;20042;-29
2022/04/17 10:07:14;;;;;;;8.77;4.47;;;;;;;10.78;93.14;99744.44;5130685;27;20027;-31
2022/04/17 10:09:40;;;;;;;9.13;4.65;;;;;;;10.69;93.17;99727.97;5112126;27;20048;-33
2022/04/17 10:12:06;;;;;;;10.10;5.30;;;;;;;10.83;92.67;99745.38;5112113;27;20042;-32
2022/04/17 10:14:32;;;;;;;11.43;7.18;;;;;;;10.75;93.73;99760.91;5130350;27;20027;-31
2022/04/17 10:16:58;;;;;;;10.82;6.63;;;;;;;10.71;92.21;99760.56;5111924;27;20490;-32
2022/04/17 10:19:27;;;;;;;9.68;6.65;;;;;;;10.69;91.64;99733.28;5130215;27;20100;-29
2022/04/17 10:21:57;;;;;;;10.45;5.57;;;;;;;10.62;92.01;99748.56;5100555;28;20419;-33
2022/04/17 10:24:23;;;;;;;8.95;5.18;;;;;;;10.50;92.47;99723.72;5091249;28;20058;-32
2022/04/17 10:26:50;;;;;;;8.13;4.30;;;;;;;10.39;93.16;99749.28;5094139;27;20221;-35
2022/04/17 10:29:25;;;;;;;9.23;5.20;;;;;;;10.54;94.16;99751.53;5127568;27;20506;-31
2022/04/17 10:32:26;;;;;;;8.07;4.55;;;;;;;10.48;93.48;99766.59;5091255;28;20396;-34
2022/04/17 10:35:27;;;;;;;8.52;4.35;;;;;;;10.31;94.11;99774.41;5109370;28;20045;-30
2022/04/17 10:37:55;;;;;;;13.98;6.97;;;;;;;10.23;94.07;99772.81;5073904;28;20147;-32
2022/04/17 10:40:21;;;;;;;;;;;;;;;10.20;93.55;99783.13;5109571;28;20041;-30
2022/04/17 10:42:56;;;;;;;8.25;4.15;;;;;;;10.03;92.98;99753.59;5090573;28;19912;-37
2022/04/17 10:45:22;;;;;;;7.85;4.15;;;;;;;10.13;94.27;99782.38;5109481;28;20027;-31
2022/04/17 10:48:07;;;;;;;6.72;3.95;;;;;;;10.18;92.76;99782.53;5109337;28;20385;-29
2022/04/17 10:50:48;;;;;;;6.95;3.72;;;;;;;10.02;92.29;99776.75;5109307;28;20027;-29
2022/04/17 10:53:28;;;;;;;11.60;6.10;;;;;;;9.93;93.04;99754.13;5108901;28;20037;-31
2022/04/17 10:56:15;;;;;;;10.20;5.00;;;;;;;10.05;92.59;99781.66;5090935;28;20535;-30
2022/04/17 10:58:49;;;;;;;8.48;5.82;;;;;;;10.05;93.42;99778.16;5090329;28;20031;-34
2022/04/17 11:01:15;;;;;;;6.82;3.67;;;;;;;10.04;91.90;99780.00;5090625;28;20533;-30
2022/04/17 11:03:54;;;;;;;7.53;4.05;;;;;;;9.99;92.83;99793.19;5090101;28;20027;-31
2022/04/17 11:06:30;;;;;;;7.50;4.22;;;;;;;9.94;92.84;99798.34;5090427;28;20108;-30
2022/04/17 11:09:14;;;;;;;7.28;3.90;;;;;;;9.91;92.79;99782.84;5108884;28;20023;-30
2022/04/17 11:11:43;;;;;;;8.82;7.93;;;;;;;9.99;92.71;99777.22;5108807;28;20506;-35
2022/04/17 11:14:11;;;;;;;6.15;3.20;;;;;;;9.89;93.93;99782.25;5090240;28;20020;-28
2022/04/17 11:16:48;;;;;;;6.95;3.80;;;;;;;9.81;92.45;99779.88;5089195;28;20028;-31
2022/04/17 11:19:16;;;;;;;9.23;5.37;;;;;;;9.65;91.42;99771.41;5108932;28;20028;-29
2022/04/17 11:21:44;;;;;;;9.70;5.47;;;;;;;9.82;91.08;99778.81;5090303;28;20262;-31
2022/04/17 11:24:10;;;;;;;;;;;;;;;9.79;92.19;99781.94;5090523;28;20427;-32
2022/04/17 11:26:53;;;;;;;7.50;4.75;;;;;;;9.67;91.12;99781.03;5108193;28;19912;-31
2022/04/17 11:29:33;;;;;;;7.97;4.80;;;;;;;9.73;91.56;99774.81;5108608;28;20022;-29
2022/04/17 11:31:59;;;;;;;5.32;2.67;;;;;;;9.44;91.40;99758.50;5090053;28;20514;-29
2022/04/17 11:34:25;;;;;;;36.58;25.05;;;;;;;9.63;91.29;99768.16;5108283;28;20559;-32
2022/04/17 11:37:02;;;;;;;17.67;15.82;;;;;;;9.40;91.51;99749.34;5044273;28;21044;-30
2022/04/17 11:39:28;;;;;;;10.82;9.27;;;;;;;9.67;92.09;99762.41;5045034;28;20113;-31
2022/04/17 11:41:53;;;;;;;9.55;8.27;;;;;;;9.26;91.94;99745.97;5043062;28;20032;-31